Ana Sayfa
METAR-TAF:

METAR-TAF

Havaalanları :

Zaporijya Uluslararası Havalimanı

Zaporijya, Ukrayna

Enlem: 47-52-02N, Boylam: 035-18-59E, yükseklik: 114 m

Güncel hava durumu gözlemi

Rapor saat 12:30 UTC de 19 dakika önce yapıldı.
Rüzgar batı/güneybatıdan 4 kt, güney/güneydoğu ve batı/kuzeybatı arasında değişken
Sıcaklık 22°C
Nem 25%
Basınç 1027 hPa
Görüş mesafesi 10 km veya daha fazla
1500 m altında bulut yok ve kümülonimbus yok

METAR: UKDE 241230Z 25002MPS 160V290 CAVOK 22/01 Q1027 R02R/090070 NOSIG

Saat: 15:49 (12:49 UTC)

Tahmin

Rapor saat 11:03 UTC de 1 saat ve 46 dakika önce yapıldı.
Ayın 24'si saat 12 UTC'den ayın 24'si saat 21 UTC'ye kadar geçerli Tahmin
Rüzgar batıdan 6 kt
Görüş mesafesi 10 km veya daha fazla
1500 m altında bulut yok ve kümülonimbus yok

TAF: UKDE 241103Z 2412/2421 27003MPS CAVOK

4.000'den fazla havaalanı için hava durumu gözlemleri ve tahminleri (METAR ve TAF raporları).

Kullanılabilir istasyonlar harita üzerinde sarı ve kırmızı noktalarla gösterilir.

İstasyonun adını görmek için fareyi noktanın üzerinde gezdirin.

Sonrasında hava gözlem ve tahminlerini görmek için tıklayın.

Haritayı değiştirmek için: yaklaştırmak için siyah artı işaretli yeşil düğmeye ve uzaklaştırmak için de eksi işaretli düğmeye hızla tıklayın; bitişik haritalar için yeşil okları kullanın.


METAR-TAF: